createdAt,value
2023-01-09T00:02:53.210Z,10.15
2023-01-09T00:05:55.632Z,5.10
2023-01-09T00:08:58.659Z,8.35
2023-01-09T00:12:02.508Z,9.50
2023-01-09T00:15:05.519Z,7.68
2023-01-09T00:18:08.184Z,8.15
2023-01-09T00:21:11.942Z,8.53
2023-01-09T00:24:14.366Z,8.68
2023-01-09T00:27:16.849Z,8.18
2023-01-09T00:30:19.374Z,10.35
2023-01-09T00:33:25.657Z,9.90
2023-01-09T00:36:28.259Z,10.43
2023-01-09T00:39:30.793Z,6.85
2023-01-09T00:42:35.264Z,7.88
2023-01-09T00:45:37.701Z,8.65
2023-01-09T00:48:42.560Z,7.60
2023-01-09T00:51:45.039Z,9.10
2023-01-09T00:54:47.980Z,9.20
2023-01-09T00:57:50.407Z,7.88
2023-01-09T01:00:53.229Z,9.02
2023-01-09T01:03:55.919Z,8.52
2023-01-09T01:07:16.498Z,7.60
2023-01-09T01:10:22.131Z,7.70
2023-01-09T01:13:25.682Z,7.28
2023-01-09T01:16:28.174Z,8.13
2023-01-09T01:19:31.125Z,7.13
2023-01-09T01:22:33.627Z,7.50
2023-01-09T01:25:40.644Z,7.68
2023-01-09T01:28:43.429Z,7.78
2023-01-09T01:31:45.863Z,7.93
2023-01-09T01:34:48.252Z,8.48
2023-01-09T01:37:50.743Z,7.57
2023-01-09T01:40:54.217Z,6.53
2023-01-09T01:44:01.560Z,7.30
2023-01-09T01:47:04.054Z,6.65
2023-01-09T01:50:24.622Z,6.80
2023-01-09T01:53:32.877Z,4.93
2023-01-09T01:56:42.549Z,6.65
2023-01-09T01:59:50.547Z,6.75
2023-01-09T02:02:53.080Z,6.78
2023-01-09T02:05:55.648Z,7.38
2023-01-09T02:08:58.257Z,5.73
2023-01-09T02:12:01.378Z,5.40
2023-01-09T02:15:13.888Z,6.43
2023-01-09T02:18:31.566Z,7.40
2023-01-09T02:22:00.298Z,6.85
2023-01-09T02:25:11.908Z,6.63
2023-01-09T02:28:40.684Z,5.75
2023-01-09T02:31:55.105Z,5.13
2023-01-09T02:35:28.340Z,5.65
2023-01-09T02:38:33.710Z,5.03
2023-01-09T02:41:42.495Z,5.53
2023-01-09T02:44:44.948Z,6.28
2023-01-09T02:47:47.482Z,5.63
2023-01-09T02:51:11.238Z,6.18
2023-01-09T02:54:35.701Z,5.22
2023-01-09T02:58:11.723Z,3.67
2023-01-09T03:01:40.196Z,6.47
2023-01-09T03:04:58.014Z,6.85
2023-01-09T03:08:03.587Z,6.25
2023-01-09T03:11:07.786Z,4.45
2023-01-09T03:14:14.074Z,3.47
2023-01-09T03:17:20.273Z,5.57
2023-01-09T03:20:24.620Z,5.70
2023-01-09T03:23:27.176Z,5.70
2023-01-09T03:26:31.055Z,4.55
2023-01-09T03:29:33.579Z,4.37
2023-01-09T03:32:36.037Z,6.13
2023-01-09T03:35:38.448Z,4.57
2023-01-09T03:38:41.033Z,5.97
2023-01-09T03:41:43.505Z,5.00
2023-01-09T03:44:45.927Z,4.03
2023-01-09T03:47:48.455Z,6.10
2023-01-09T03:50:55.058Z,5.43
2023-01-09T03:53:57.665Z,4.63
2023-01-09T03:57:00.042Z,4.60
2023-01-09T04:00:02.895Z,5.47
2023-01-09T04:03:16.238Z,3.72
2023-01-09T04:06:18.863Z,4.72
2023-01-09T04:09:21.303Z,5.68
2023-01-09T04:12:23.791Z,5.65
2023-01-09T04:15:26.269Z,4.13
2023-01-09T04:18:28.664Z,5.07
2023-01-09T04:21:31.099Z,4.50
2023-01-09T04:24:33.609Z,5.55
2023-01-09T04:27:36.031Z,3.78
2023-01-09T04:30:38.587Z,4.50
2023-01-09T04:33:41.004Z,4.85
2023-01-09T04:36:43.427Z,4.32
2023-01-09T04:39:46.117Z,3.50
2023-01-09T04:42:48.577Z,7.93
2023-01-09T04:45:51.121Z,6.10
2023-01-09T04:48:53.569Z,6.80
2023-01-09T04:51:56.111Z,5.10
2023-01-09T04:54:58.508Z,6.90
2023-01-09T04:58:01.020Z,4.35
2023-01-09T05:01:03.631Z,6.63
2023-01-09T05:04:06.525Z,6.28
2023-01-09T05:07:09.088Z,4.40
2023-01-09T05:10:11.762Z,5.78
2023-01-09T05:13:14.154Z,5.95
2023-01-09T05:16:16.675Z,7.20
2023-01-09T05:19:19.363Z,7.18
2023-01-09T05:22:22.678Z,7.55
2023-01-09T05:25:25.181Z,7.93
2023-01-09T05:28:27.807Z,8.35
2023-01-09T05:31:30.234Z,6.43
2023-01-09T05:34:32.799Z,7.28
2023-01-09T05:37:35.205Z,8.48
2023-01-09T05:40:40.426Z,9.98
2023-01-09T05:43:43.039Z,11.40
2023-01-09T05:46:45.593Z,15.00
2023-01-09T05:49:47.999Z,29.23
2023-01-09T05:52:50.408Z,27.40
2023-01-09T05:55:52.870Z,10.05
2023-01-09T05:58:55.498Z,8.93
2023-01-09T06:01:58.058Z,7.90
2023-01-09T06:05:00.511Z,7.88
2023-01-09T06:08:03.011Z,7.57
2023-01-09T06:11:05.637Z,10.25
2023-01-09T06:14:08.086Z,11.52
2023-01-09T06:17:11.353Z,7.60
2023-01-09T06:20:13.874Z,7.50
2023-01-09T06:23:16.354Z,7.25
2023-01-09T06:26:18.820Z,8.35
2023-01-09T06:29:21.269Z,7.43
2023-01-09T06:32:23.805Z,6.87
2023-01-09T06:35:26.312Z,7.60
2023-01-09T06:38:28.772Z,10.50
2023-01-09T06:41:31.400Z,7.72
2023-01-09T06:44:36.585Z,7.82
2023-01-09T06:47:39.444Z,8.50
2023-01-09T06:50:42.083Z,22.83
2023-01-09T06:53:44.628Z,13.68
2023-01-09T06:56:47.455Z,14.75
2023-01-09T06:59:49.982Z,9.27
2023-01-09T07:02:52.685Z,9.70
2023-01-09T07:05:55.207Z,9.18
2023-01-09T07:09:01.248Z,8.00
2023-01-09T07:12:05.326Z,7.93
2023-01-09T07:15:09.468Z,11.05
2023-01-09T07:18:12.955Z,8.03
2023-01-09T07:21:15.739Z,10.00
2023-01-09T07:24:18.323Z,14.75
2023-01-09T07:27:21.528Z,10.65
2023-01-09T07:30:24.162Z,10.63
2023-01-09T07:33:26.665Z,9.17
2023-01-09T07:36:29.383Z,8.50
2023-01-09T07:39:31.921Z,13.13
2023-01-09T07:42:34.615Z,12.00
2023-01-09T07:45:37.057Z,10.05
2023-01-09T07:48:39.648Z,9.03
2023-01-09T07:51:43.361Z,9.32
2023-01-09T07:54:45.864Z,8.60
2023-01-09T07:57:50.287Z,9.25
2023-01-09T08:00:53.837Z,8.95
2023-01-09T08:03:57.964Z,8.07
2023-01-09T08:07:03.837Z,9.63
2023-01-09T08:10:08.002Z,9.70
2023-01-09T08:13:10.997Z,11.93
2023-01-09T08:16:13.772Z,12.23
2023-01-09T08:19:16.217Z,15.43
2023-01-09T08:22:19.240Z,13.75
2023-01-09T08:25:21.766Z,23.58
2023-01-09T08:28:24.509Z,23.90
2023-01-09T08:31:27.135Z,25.45
2023-01-09T08:34:30.531Z,14.43
2023-01-09T08:37:33.069Z,12.05
2023-01-09T08:40:35.619Z,14.23
2023-01-09T08:43:56.674Z,12.18
2023-01-09T08:47:07.842Z,10.85
2023-01-09T08:50:13.331Z,12.57
2023-01-09T08:53:16.270Z,10.23
2023-01-09T08:56:18.872Z,10.75
2023-01-09T08:59:22.260Z,9.65
2023-01-09T09:02:25.965Z,10.27
2023-01-09T09:05:30.047Z,11.93
2023-01-09T09:08:32.539Z,19.63
2023-01-09T09:11:37.466Z,11.88
2023-01-09T09:14:58.494Z,11.27
2023-01-09T09:18:03.263Z,8.18
2023-01-09T09:21:05.835Z,8.50
2023-01-09T09:24:08.693Z,6.82
2023-01-09T09:27:13.984Z,8.13
2023-01-09T09:30:18.505Z,7.90
2023-01-09T09:33:20.993Z,7.15
2023-01-09T09:36:23.513Z,8.80
2023-01-09T09:39:26.200Z,11.02
2023-01-09T09:43:15.713Z,6.30
2023-01-09T09:46:36.825Z,9.43
2023-01-09T09:49:46.632Z,10.27
2023-01-09T09:53:18.986Z,7.70
2023-01-09T09:56:23.887Z,7.07
2023-01-09T09:59:29.989Z,6.40
2023-01-09T10:03:33.959Z,7.65
2023-01-09T10:06:45.175Z,5.47
2023-01-09T10:09:57.783Z,8.50
2023-01-09T10:13:20.842Z,11.13
2023-01-09T10:16:23.617Z,8.55
2023-01-09T10:19:34.999Z,7.70
2023-01-09T10:22:50.281Z,7.20
2023-01-09T10:25:57.842Z,8.17
2023-01-09T10:29:19.585Z,6.03
2023-01-09T10:32:22.620Z,6.18
2023-01-09T10:35:47.402Z,4.60
2023-01-09T10:38:52.690Z,7.18
2023-01-09T10:42:19.278Z,7.03
2023-01-09T10:45:38.877Z,5.32
2023-01-09T10:48:45.052Z,5.43
2023-01-09T10:51:52.797Z,6.00
2023-01-09T10:55:21.977Z,5.65
2023-01-09T10:58:24.527Z,5.43
2023-01-09T11:01:37.608Z,5.25
2023-01-09T11:04:40.401Z,4.95
2023-01-09T11:07:45.450Z,5.38
2023-01-09T11:10:52.620Z,7.40
2023-01-09T11:14:16.188Z,5.07
2023-01-09T11:17:27.078Z,21.23
2023-01-09T11:20:30.199Z,6.85
2023-01-09T11:23:33.281Z,7.90
2023-01-09T11:26:36.218Z,4.88
2023-01-09T11:29:39.182Z,4.87
2023-01-09T11:32:42.277Z,9.80
2023-01-09T11:36:03.266Z,5.43
2023-01-09T11:39:05.932Z,6.85
2023-01-09T11:42:19.325Z,7.63
2023-01-09T11:45:25.630Z,5.50
2023-01-09T11:48:31.762Z,5.60
2023-01-09T11:51:35.693Z,5.85
2023-01-09T11:54:40.848Z,3.13
2023-01-09T11:57:43.381Z,5.43
2023-01-09T12:01:15.732Z,5.43
2023-01-09T12:04:30.914Z,4.75
2023-01-09T12:07:58.170Z,5.25
2023-01-09T12:11:24.115Z,4.72
2023-01-09T12:14:35.895Z,5.10
2023-01-09T12:17:54.002Z,2.57
2023-01-09T12:21:23.335Z,3.67
2023-01-09T12:24:47.587Z,4.43
2023-01-09T12:28:01.762Z,4.70
2023-01-09T12:31:26.142Z,5.88
2023-01-09T12:34:59.370Z,3.40
2023-01-09T12:38:41.306Z,4.07
2023-01-09T12:41:56.246Z,6.55
2023-01-09T12:45:01.435Z,5.03
2023-01-09T12:48:15.274Z,6.05
2023-01-09T12:51:20.723Z,5.53
2023-01-09T12:54:32.645Z,6.97
2023-01-09T12:57:37.823Z,7.53
2023-01-09T13:00:43.793Z,5.00
2023-01-09T13:03:53.337Z,8.68
2023-01-09T13:07:02.724Z,7.53
2023-01-09T13:10:40.949Z,8.18
2023-01-09T13:14:02.497Z,7.53
2023-01-09T13:17:08.402Z,8.18
2023-01-09T13:20:20.943Z,9.57
2023-01-09T13:23:29.185Z,7.47
2023-01-09T13:26:40.612Z,6.03
2023-01-09T13:29:52.697Z,7.03
2023-01-09T13:33:26.372Z,6.38
2023-01-09T13:36:34.714Z,11.18
2023-01-09T13:39:38.047Z,9.47
2023-01-09T13:42:46.418Z,8.68
2023-01-09T13:45:50.842Z,8.95
2023-01-09T13:48:53.600Z,7.93
2023-01-09T13:52:01.355Z,7.70
2023-01-09T13:55:16.182Z,9.13
2023-01-09T13:58:22.569Z,10.68
2023-01-09T14:01:25.687Z,11.27
2023-01-09T14:04:38.309Z,9.13
2023-01-09T14:07:49.292Z,10.23
2023-01-09T14:11:01.035Z,7.63
2023-01-09T14:14:05.213Z,11.07
2023-01-09T14:17:16.868Z,10.15
2023-01-09T14:20:27.582Z,11.45
2023-01-09T14:23:50.400Z,11.52
2023-01-09T14:26:57.387Z,10.83
2023-01-09T14:30:38.496Z,10.52
2023-01-09T14:33:40.990Z,9.40
2023-01-09T14:36:44.081Z,12.60
2023-01-09T14:39:47.124Z,12.25
2023-01-09T14:42:54.102Z,11.03
2023-01-09T14:45:59.595Z,10.85
2023-01-09T14:49:34.949Z,29.83
2023-01-09T14:52:39.379Z,30.50
2023-01-09T14:55:57.706Z,50.33
2023-01-09T14:59:11.110Z,38.20
2023-01-09T15:02:13.564Z,48.15
2023-01-09T15:05:26.427Z,44.00
2023-01-09T15:08:29.566Z,30.90
2023-01-09T15:11:32.639Z,24.58
2023-01-09T15:14:41.402Z,12.03
2023-01-09T15:17:53.669Z,12.73
2023-01-09T15:20:59.412Z,28.77
2023-01-09T15:24:21.614Z,34.67
2023-01-09T15:27:24.241Z,48.45
2023-01-09T15:30:35.947Z,39.40
2023-01-09T15:33:43.009Z,24.85
2023-01-09T15:36:45.914Z,15.60
2023-01-09T15:39:48.506Z,24.15
2023-01-09T15:42:57.139Z,23.80
2023-01-09T15:46:00.819Z,17.07
2023-01-09T15:49:03.450Z,29.20
2023-01-09T15:52:11.831Z,30.70
2023-01-09T15:55:35.213Z,39.15
2023-01-09T15:58:48.362Z,33.80
2023-01-09T16:02:19.908Z,33.73
2023-01-09T16:05:23.461Z,34.92
2023-01-09T16:08:31.876Z,39.08
2023-01-09T16:11:36.682Z,39.80
2023-01-09T16:14:41.963Z,30.25
2023-01-09T16:18:04.681Z,32.13
2023-01-09T16:21:28.914Z,21.30
2023-01-09T16:24:40.422Z,24.25
2023-01-09T16:27:42.844Z,20.80
2023-01-09T16:31:16.226Z,19.33
2023-01-09T16:34:18.757Z,19.03
2023-01-09T16:37:24.908Z,17.52
2023-01-09T16:40:29.878Z,17.98
2023-01-09T16:43:32.744Z,15.13
2023-01-09T16:46:45.455Z,16.00
2023-01-09T16:49:47.974Z,15.37
2023-01-09T16:52:51.005Z,16.55
2023-01-09T16:55:54.006Z,17.55
2023-01-09T16:58:56.973Z,17.77
2023-01-09T17:01:59.543Z,18.90
2023-01-09T17:05:03.093Z,19.53
2023-01-09T17:08:18.694Z,18.70
2023-01-09T17:11:31.323Z,18.38
2023-01-09T17:14:33.823Z,17.55
2023-01-09T17:17:36.411Z,19.80
2023-01-09T17:20:40.146Z,18.23
2023-01-09T17:23:42.850Z,20.77
2023-01-09T17:27:07.887Z,22.17
2023-01-09T17:30:18.675Z,21.33
2023-01-09T17:33:21.679Z,17.55
2023-01-09T17:36:32.306Z,17.27
2023-01-09T17:39:35.222Z,19.33
2023-01-09T17:42:37.645Z,19.30
2023-01-09T17:45:41.282Z,18.08
2023-01-09T17:48:43.822Z,16.50
2023-01-09T17:51:46.527Z,14.83
2023-01-09T17:54:49.002Z,13.65
2023-01-09T17:57:51.594Z,14.60
2023-01-09T18:00:54.460Z,14.90
2023-01-09T18:03:57.012Z,16.20
2023-01-09T18:06:59.586Z,14.90
2023-01-09T18:10:02.183Z,15.48
2023-01-09T18:13:04.695Z,15.88
2023-01-09T18:16:24.180Z,15.98
2023-01-09T18:19:26.668Z,16.02
2023-01-09T18:22:29.161Z,14.77
2023-01-09T18:25:31.804Z,14.93
2023-01-09T18:28:38.382Z,14.05
2023-01-09T18:31:41.139Z,13.70
2023-01-09T18:34:43.678Z,14.45
2023-01-09T18:37:46.223Z,13.77
2023-01-09T18:40:49.643Z,13.95
2023-01-09T18:43:57.693Z,13.15
2023-01-09T18:47:02.015Z,15.50
2023-01-09T18:50:05.279Z,16.63
2023-01-09T18:53:07.922Z,16.10
2023-01-09T18:56:10.701Z,17.35
2023-01-09T18:59:13.241Z,18.08
2023-01-09T19:02:21.058Z,19.58
2023-01-09T19:05:25.417Z,17.55
2023-01-09T19:08:32.298Z,35.60
2023-01-09T19:11:34.892Z,23.90
2023-01-09T19:14:38.182Z,24.38
2023-01-09T19:17:41.169Z,22.02
2023-01-09T19:20:43.798Z,20.85
2023-01-09T19:23:47.308Z,24.20
2023-01-09T19:26:49.908Z,19.35
2023-01-09T19:29:52.678Z,17.38
2023-01-09T19:32:55.138Z,14.85
2023-01-09T19:35:57.645Z,17.20
2023-01-09T19:39:01.401Z,14.97
2023-01-09T19:42:03.875Z,15.80
2023-01-09T19:45:06.987Z,16.42
2023-01-09T19:48:09.510Z,14.18
2023-01-09T19:51:12.786Z,15.00
2023-01-09T19:54:15.313Z,13.83
2023-01-09T19:57:17.772Z,14.73
2023-01-09T20:00:21.044Z,14.73
2023-01-09T20:03:25.616Z,21.67
2023-01-09T20:06:28.341Z,18.10
2023-01-09T20:09:31.093Z,16.80
2023-01-09T20:12:33.737Z,18.60
2023-01-09T20:15:37.615Z,18.70
2023-01-09T20:18:40.845Z,18.30
2023-01-09T20:21:43.797Z,18.65
2023-01-09T20:24:46.812Z,19.23
2023-01-09T20:27:49.243Z,18.95
2023-01-09T20:30:53.668Z,20.65
2023-01-09T20:33:56.384Z,18.35
2023-01-09T20:36:58.863Z,16.55
2023-01-09T20:40:01.383Z,16.73
2023-01-09T20:43:04.583Z,13.88
2023-01-09T20:46:07.706Z,12.15
2023-01-09T20:49:12.678Z,11.45
2023-01-09T20:52:15.303Z,11.80
2023-01-09T20:55:18.125Z,11.63
2023-01-09T20:58:20.538Z,9.50
2023-01-09T21:01:23.745Z,11.60
2023-01-09T21:04:26.281Z,11.18
2023-01-09T21:07:28.885Z,10.68
2023-01-09T21:10:31.356Z,12.93
2023-01-09T21:13:33.729Z,12.68
2023-01-09T21:16:36.196Z,13.15
2023-01-09T21:19:38.679Z,13.38
2023-01-09T21:22:41.266Z,15.43
2023-01-09T21:25:45.272Z,15.07
2023-01-09T21:28:49.158Z,14.45
2023-01-09T21:31:52.697Z,14.27
2023-01-09T21:34:55.297Z,14.70
2023-01-09T21:37:58.141Z,14.45
2023-01-09T21:41:20.726Z,15.13
2023-01-09T21:44:41.880Z,15.05
2023-01-09T21:47:44.265Z,15.15
2023-01-09T21:50:46.740Z,15.27
2023-01-09T21:53:49.118Z,14.02
2023-01-09T21:56:52.343Z,13.83
2023-01-09T21:59:54.769Z,13.13
2023-01-09T22:02:57.814Z,13.13
2023-01-09T22:06:03.827Z,13.52
2023-01-09T22:09:06.478Z,12.30
2023-01-09T22:12:08.975Z,11.23
2023-01-09T22:15:11.420Z,11.52
2023-01-09T22:18:13.961Z,11.05
2023-01-09T22:21:17.664Z,10.75
2023-01-09T22:24:21.681Z,11.05
2023-01-09T22:27:24.148Z,11.47
2023-01-09T22:30:26.731Z,11.57
2023-01-09T22:33:29.102Z,12.57
2023-01-09T22:36:31.955Z,12.05
2023-01-09T22:39:34.498Z,11.55
2023-01-09T22:42:36.885Z,11.97
2023-01-09T22:45:39.284Z,10.35
2023-01-09T22:48:42.494Z,10.60
2023-01-09T22:51:44.984Z,11.82
2023-01-09T22:54:47.776Z,10.70
2023-01-09T22:57:50.215Z,10.70
2023-01-09T23:00:53.171Z,9.40
2023-01-09T23:03:55.738Z,9.23
2023-01-09T23:06:58.142Z,10.80
2023-01-09T23:10:02.111Z,8.43
2023-01-09T23:13:04.783Z,10.07
2023-01-09T23:16:07.521Z,10.02
2023-01-09T23:19:14.393Z,10.00
2023-01-09T23:22:17.137Z,10.32
2023-01-09T23:25:19.595Z,10.55
2023-01-09T23:28:22.900Z,11.60
2023-01-09T23:31:26.039Z,11.00
2023-01-09T23:34:28.592Z,10.98
2023-01-09T23:37:31.045Z,11.55
2023-01-09T23:40:36.312Z,10.88
2023-01-09T23:43:38.760Z,12.07
2023-01-09T23:46:41.205Z,11.40
2023-01-09T23:49:43.663Z,10.70
2023-01-09T23:52:46.208Z,10.43
2023-01-09T23:55:49.463Z,11.38
2023-01-09T23:58:51.911Z,11.70
